Time;durP1;ratioP1;P1;durP2;ratioP2;P2;SDS_P1;SDS_P2;PMS_P1;PMS_P2;Temp;Humidity;BMP_temperature;BMP_pressure;BME280_temperature;BME280_humidity;BME280_pressure;Samples;Min_cycle;Max_cycle;Signal;HPM_P1;HPM_P2
2023/08/16 00:01:16;;;;;;;0.00;0.00;;;17.00;81.00;;;;;;5011144;28;20063;-76
2023/08/16 00:03:43;;;;;;;0.00;0.00;;;16.90;81.00;;;;;;5011352;28;20594;-76
2023/08/16 00:06:13;;;;;;;0.00;0.00;;;16.90;81.00;;;;;;5029009;28;20045;-76
2023/08/16 00:08:40;;;;;;;0.00;0.00;;;16.80;81.10;;;;;;5003343;28;20136;-76
2023/08/16 00:11:05;;;;;;;0.00;0.00;;;16.70;80.80;;;;;;5031683;28;20045;-76
2023/08/16 00:13:32;;;;;;;0.00;0.00;;;16.70;81.00;;;;;;5012878;28;20045;-76
2023/08/16 00:15:58;;;;;;;0.00;0.00;;;16.70;81.10;;;;;;5033914;28;20064;-76
2023/08/16 00:18:23;;;;;;;0.00;0.00;;;16.60;81.00;;;;;;5036253;28;20053;-76
2023/08/16 00:20:49;;;;;;;0.00;0.00;;;16.60;80.80;;;;;;5023073;28;20822;-76
2023/08/16 00:23:14;;;;;;;0.00;0.00;;;16.60;80.70;;;;;;5025615;28;20405;-76
2023/08/16 00:25:40;;;;;;;0.00;0.00;;;16.60;80.70;;;;;;5029990;28;20041;-76
2023/08/16 00:28:05;;;;;;;0.00;0.00;;;16.60;80.70;;;;;;4998491;28;20033;-76
2023/08/16 00:30:31;;;;;;;0.00;0.00;;;16.60;80.80;;;;;;5015549;28;20042;-76
2023/08/16 00:32:57;;;;;;;0.00;0.00;;;16.60;80.90;;;;;;5022306;28;20045;-76
2023/08/16 00:35:22;;;;;;;0.00;0.00;;;16.60;81.20;;;;;;5035050;28;20466;-76
2023/08/16 00:37:48;;;;;;;0.00;0.00;;;16.50;80.90;;;;;;5035667;28;20049;-76
2023/08/16 00:40:15;;;;;;;0.00;0.00;;;16.50;80.60;;;;;;5035620;28;20667;-76
2023/08/16 00:42:41;;;;;;;0.00;0.00;;;16.40;80.40;;;;;;5034845;28;20041;-76
2023/08/16 00:45:07;;;;;;;0.00;0.00;;;16.50;80.50;;;;;;5035026;28;20113;-76
2023/08/16 00:47:34;;;;;;;0.00;0.00;;;16.40;80.50;;;;;;5034949;28;20517;-76
2023/08/16 00:50:00;;;;;;;0.00;0.00;;;16.50;80.80;;;;;;5034706;28;20045;-76
2023/08/16 00:52:26;;;;;;;0.00;0.00;;;16.40;80.90;;;;;;5034632;28;20486;-76
2023/08/16 00:54:53;;;;;;;0.00;0.00;;;16.40;81.00;;;;;;5034978;28;20137;-76
2023/08/16 00:57:19;;;;;;;0.00;0.00;;;16.40;80.90;;;;;;5000852;28;20049;-76
2023/08/16 00:59:45;;;;;;;0.10;0.10;;;16.40;80.90;;;;;;5034130;28;20136;-76
2023/08/16 01:02:14;;;;;;;0.00;0.00;;;16.50;81.00;;;;;;5034416;28;20514;-76
2023/08/16 01:04:40;;;;;;;0.00;0.00;;;16.40;81.10;;;;;;5034960;28;20053;-76
2023/08/16 01:07:06;;;;;;;0.00;0.00;;;16.50;81.50;;;;;;5021493;28;20049;-76
2023/08/16 01:09:32;;;;;;;0.00;0.00;;;16.50;81.40;;;;;;5030735;28;20434;-76
2023/08/16 01:12:06;;;;;;;0.00;0.00;;;16.50;81.40;;;;;;5034444;28;20140;-76
2023/08/16 01:14:57;;;;;;;0.00;0.00;;;16.50;81.50;;;;;;5008247;28;20049;-76
2023/08/16 01:17:24;;;;;;;0.10;0.10;;;16.60;81.70;;;;;;5021669;28;20088;-76
2023/08/16 01:19:53;;;;;;;0.00;0.00;;;16.50;82.40;;;;;;5034445;28;20045;-76
2023/08/16 01:23:05;;;;;;;0.08;0.08;;;16.50;82.60;;;;;;5034367;28;20060;-76
2023/08/16 01:25:49;;;;;;;0.00;0.00;;;16.60;82.40;;;;;;5002559;28;20057;-76
2023/08/16 01:28:17;;;;;;;0.00;0.00;;;16.50;82.60;;;;;;5024856;28;20041;-75
2023/08/16 01:30:45;;;;;;;0.00;0.00;;;16.50;82.40;;;;;;5034893;28;20050;-76
2023/08/16 01:33:12;;;;;;;0.00;0.00;;;16.50;82.20;;;;;;5033494;28;20069;-76
2023/08/16 01:35:39;;;;;;;0.00;0.00;;;16.50;82.00;;;;;;5027944;28;20111;-76
2023/08/16 01:38:07;;;;;;;0.00;0.00;;;16.50;81.90;;;;;;5026958;28;20060;-76
2023/08/16 01:40:54;;;;;;;0.00;0.00;;;16.60;81.80;;;;;;5012127;28;20060;-76
2023/08/16 01:43:21;;;;;;;0.00;0.00;;;16.50;81.80;;;;;;5000835;28;20107;-76
2023/08/16 01:45:49;;;;;;;0.00;0.00;;;16.50;81.70;;;;;;5027683;28;20054;-76
2023/08/16 01:48:15;;;;;;;0.00;0.00;;;16.50;81.80;;;;;;4999928;28;20064;-76
2023/08/16 01:50:41;;;;;;;0.00;0.00;;;16.50;81.70;;;;;;5021559;28;20075;-76
2023/08/16 01:53:08;;;;;;;0.00;0.00;;;16.40;81.50;;;;;;5024954;28;20399;-76
2023/08/16 01:55:33;;;;;;;0.00;0.00;;;16.40;81.50;;;;;;5012261;28;20095;-76
2023/08/16 01:57:59;;;;;;;0.00;0.00;;;16.40;81.40;;;;;;5030869;28;20128;-76
2023/08/16 02:00:24;;;;;;;0.00;0.00;;;16.40;81.20;;;;;;5031482;28;20045;-76
2023/08/16 02:02:50;;;;;;;0.00;0.00;;;16.30;81.10;;;;;;5030626;28;20187;-76
2023/08/16 02:05:15;;;;;;;0.00;0.00;;;16.30;81.10;;;;;;5030739;28;20079;-76
2023/08/16 02:07:41;;;;;;;0.00;0.00;;;16.30;81.10;;;;;;5012477;28;20046;-76
2023/08/16 02:10:07;;;;;;;0.00;0.00;;;16.20;81.10;;;;;;5030403;28;20347;-76
2023/08/16 02:12:33;;;;;;;0.00;0.00;;;16.20;81.00;;;;;;5012198;28;20033;-76
2023/08/16 02:14:58;;;;;;;0.55;0.45;;;16.10;81.30;;;;;;5030376;28;20132;-76
2023/08/16 02:17:24;;;;;;;0.00;0.00;;;16.10;81.50;;;;;;5015014;28;20136;-76
2023/08/16 02:19:49;;;;;;;0.00;0.00;;;16.10;81.40;;;;;;5026971;28;20248;-76
2023/08/16 02:22:15;;;;;;;0.00;0.00;;;16.00;81.40;;;;;;5029984;28;20565;-76
2023/08/16 02:24:40;;;;;;;0.00;0.00;;;16.00;81.60;;;;;;4996487;28;20053;-76
2023/08/16 02:27:06;;;;;;;0.00;0.00;;;16.00;81.70;;;;;;5017819;28;20046;-76
2023/08/16 02:29:31;;;;;;;0.00;0.00;;;16.00;81.80;;;;;;5024259;28;20472;-76
2023/08/16 02:31:57;;;;;;;0.00;0.00;;;16.00;81.90;;;;;;5030653;28;20052;-75
2023/08/16 02:34:23;;;;;;;0.00;0.00;;;16.00;81.90;;;;;;5030332;28;20049;-76
2023/08/16 02:36:48;;;;;;;0.03;0.03;;;16.00;81.90;;;;;;5019361;28;20384;-75
2023/08/16 02:39:14;;;;;;;0.00;0.00;;;15.90;82.20;;;;;;5021701;28;20499;-76
2023/08/16 02:41:39;;;;;;;0.00;0.00;;;16.00;82.40;;;;;;5030210;28;20418;-75
2023/08/16 02:44:05;;;;;;;0.00;0.00;;;15.90;82.20;;;;;;5030159;28;20180;-76
2023/08/16 02:46:30;;;;;;;0.00;0.00;;;15.90;82.00;;;;;;5022207;28;20141;-76
2023/08/16 02:48:56;;;;;;;0.00;0.00;;;15.90;81.80;;;;;;5018477;28;20037;-76
2023/08/16 02:51:21;;;;;;;0.00;0.00;;;15.90;81.80;;;;;;5030014;28;20514;-76
2023/08/16 02:53:47;;;;;;;0.00;0.00;;;15.90;81.90;;;;;;5029974;28;20052;-76
2023/08/16 02:56:13;;;;;;;0.00;0.00;;;15.90;81.90;;;;;;5028823;28;20073;-75
2023/08/16 02:58:39;;;;;;;0.00;0.00;;;15.90;81.80;;;;;;5029802;28;20171;-76
2023/08/16 03:01:04;;;;;;;0.00;0.00;;;15.90;81.80;;;;;;5030511;28;20140;-75
2023/08/16 03:03:31;;;;;;;0.00;0.00;;;15.80;81.80;;;;;;5029181;28;20053;-76
2023/08/16 03:05:56;;;;;;;0.00;0.00;;;15.90;81.80;;;;;;5027065;28;20049;-76
2023/08/16 03:08:22;;;;;;;0.00;0.00;;;15.80;81.70;;;;;;5014253;28;20049;-76
2023/08/16 03:10:49;;;;;;;0.00;0.00;;;15.80;81.70;;;;;;5029152;28;20045;-76
2023/08/16 03:13:14;;;;;;;0.00;0.00;;;15.80;81.70;;;;;;5012394;28;20052;-76
2023/08/16 03:15:40;;;;;;;0.00;0.00;;;15.80;81.70;;;;;;5010936;28;20053;-75
2023/08/16 03:18:06;;;;;;;0.00;0.00;;;15.80;81.70;;;;;;5029860;28;20049;-76
2023/08/16 03:20:32;;;;;;;0.00;0.00;;;15.80;81.60;;;;;;5028110;28;20045;-76
2023/08/16 03:22:57;;;;;;;0.00;0.00;;;15.80;81.60;;;;;;5028742;28;20591;-75
2023/08/16 03:25:23;;;;;;;0.00;0.00;;;15.80;81.80;;;;;;5020494;28;20053;-76
2023/08/16 03:27:49;;;;;;;0.00;0.00;;;15.80;81.80;;;;;;5010104;28;20053;-75
2023/08/16 03:30:14;;;;;;;0.00;0.00;;;15.80;81.70;;;;;;4993640;28;20438;-75
2023/08/16 03:32:40;;;;;;;0.00;0.00;;;15.70;81.60;;;;;;5029572;28;20060;-75
2023/08/16 03:35:06;;;;;;;0.00;0.00;;;15.70;81.50;;;;;;5028769;28;20128;-76
2023/08/16 03:37:34;;;;;;;0.00;0.00;;;15.70;81.50;;;;;;5028849;28;20084;-75
2023/08/16 03:40:00;;;;;;;0.00;0.00;;;15.70;81.40;;;;;;5028817;28;20505;-76
2023/08/16 03:42:25;;;;;;;0.00;0.00;;;15.70;81.30;;;;;;5029096;28;20037;-76
2023/08/16 03:44:51;;;;;;;0.00;0.00;;;15.60;81.30;;;;;;5028374;28;20406;-75
2023/08/16 03:47:17;;;;;;;0.00;0.00;;;15.60;81.40;;;;;;5028771;28;20079;-76
2023/08/16 03:49:45;;;;;;;0.00;0.00;;;15.60;81.40;;;;;;5028667;28;20072;-75
2023/08/16 03:52:11;;;;;;;0.03;0.03;;;15.60;81.50;;;;;;5029200;28;20037;-76
2023/08/16 03:54:36;;;;;;;0.00;0.00;;;15.50;81.50;;;;;;5029206;28;20048;-76
2023/08/16 03:57:02;;;;;;;0.00;0.00;;;15.40;81.40;;;;;;5025197;28;20045;-76
2023/08/16 03:59:28;;;;;;;0.00;0.00;;;15.40;81.30;;;;;;5029356;28;20242;-76
2023/08/16 04:01:54;;;;;;;0.00;0.00;;;15.30;81.30;;;;;;5011514;28;20128;-76
2023/08/16 04:04:19;;;;;;;0.00;0.00;;;15.30;81.40;;;;;;5028539;28;20124;-76
2023/08/16 04:06:45;;;;;;;0.00;0.00;;;15.30;81.40;;;;;;5016513;28;20525;-76
2023/08/16 04:09:11;;;;;;;0.00;0.00;;;15.30;81.40;;;;;;4991807;28;20073;-76
2023/08/16 04:11:36;;;;;;;0.00;0.00;;;15.30;81.50;;;;;;5023505;28;20049;-76
2023/08/16 04:14:02;;;;;;;0.00;0.00;;;15.30;81.60;;;;;;5011447;28;20053;-76
2023/08/16 04:16:27;;;;;;;0.00;0.00;;;15.30;81.50;;;;;;5018188;28;20050;-75
2023/08/16 04:18:54;;;;;;;0.00;0.00;;;15.20;81.80;;;;;;5009353;28;20046;-76
2023/08/16 04:21:20;;;;;;;0.00;0.00;;;15.20;82.10;;;;;;5019542;28;20124;-76
2023/08/16 04:23:45;;;;;;;0.00;0.00;;;15.20;82.30;;;;;;5028825;28;20124;-76
2023/08/16 04:26:12;;;;;;;0.00;0.00;;;15.20;82.20;;;;;;5020862;28;20048;-76
2023/08/16 04:28:38;;;;;;;0.08;0.08;;;15.20;82.20;;;;;;5008647;28;20546;-76
2023/08/16 04:31:06;;;;;;;0.00;0.00;;;15.20;82.30;;;;;;5000327;28;20049;-76
2023/08/16 04:33:32;;;;;;;0.00;0.00;;;15.10;82.20;;;;;;5028666;28;20042;-76
2023/08/16 04:35:57;;;;;;;0.00;0.00;;;15.10;82.10;;;;;;5027448;28;20046;-76
2023/08/16 04:38:23;;;;;;;0.00;0.00;;;15.10;82.10;;;;;;5028568;28;20050;-75
2023/08/16 04:40:49;;;;;;;0.00;0.00;;;15.10;82.20;;;;;;5028329;28;20057;-76
2023/08/16 04:43:15;;;;;;;0.00;0.00;;;15.10;82.30;;;;;;5028959;28;20179;-76
2023/08/16 04:45:41;;;;;;;0.00;0.00;;;15.10;82.80;;;;;;5025569;28;20045;-76
2023/08/16 04:48:08;;;;;;;0.00;0.00;;;15.00;82.80;;;;;;5027574;28;20050;-76
2023/08/16 04:50:34;;;;;;;0.00;0.00;;;15.00;82.60;;;;;;5027629;28;20933;-76
2023/08/16 04:53:00;;;;;;;0.00;0.00;;;15.00;82.60;;;;;;5027669;28;20443;-76
2023/08/16 04:55:26;;;;;;;0.00;0.00;;;15.00;82.60;;;;;;4993280;28;20068;-75
2023/08/16 04:57:51;;;;;;;0.00;0.00;;;14.90;82.80;;;;;;5010345;28;20068;-75
2023/08/16 05:00:19;;;;;;;0.00;0.00;;;15.00;82.80;;;;;;5028190;28;20054;-76
2023/08/16 05:02:44;;;;;;;0.00;0.00;;;15.00;82.70;;;;;;5027648;28;20045;-76
2023/08/16 05:05:10;;;;;;;0.00;0.00;;;15.10;82.70;;;;;;5028011;28;20092;-76
2023/08/16 05:07:35;;;;;;;0.00;0.00;;;15.00;82.70;;;;;;5028378;28;20518;-76
2023/08/16 05:10:01;;;;;;;0.00;0.00;;;15.10;82.90;;;;;;5031800;28;20041;-76
2023/08/16 05:12:27;;;;;;;0.00;0.00;;;15.10;82.90;;;;;;5031161;28;20072;-76
2023/08/16 05:14:52;;;;;;;0.00;0.00;;;15.10;82.80;;;;;;5031448;28;20112;-76
2023/08/16 05:17:18;;;;;;;0.00;0.00;;;15.20;83.10;;;;;;5030366;28;20414;-76
2023/08/16 05:19:44;;;;;;;0.00;0.00;;;15.20;83.60;;;;;;5024798;28;20077;-75
2023/08/16 05:22:09;;;;;;;0.00;0.00;;;15.20;83.70;;;;;;5048521;23;20057;-77
2023/08/16 05:24:35;;;;;;;0.00;0.00;;;15.30;83.60;;;;;;5052133;28;20052;-76
2023/08/16 05:27:01;;;;;;;0.00;0.00;;;15.30;83.50;;;;;;5036884;28;20475;-79
2023/08/16 05:29:26;;;;;;;0.00;0.00;;;15.40;83.50;;;;;;5022602;28;20402;-77
2023/08/16 05:31:52;;;;;;;0.00;0.00;;;15.50;83.60;;;;;;5033452;28;20125;-76
2023/08/16 05:34:19;;;;;;;0.00;0.00;;;15.50;83.90;;;;;;5059623;23;20409;-76
2023/08/16 05:36:46;;;;;;;0.00;0.00;;;15.60;83.80;;;;;;5039783;28;20561;-75
2023/08/16 05:39:13;;;;;;;0.00;0.00;;;15.60;83.80;;;;;;5049377;28;20055;-76
2023/08/16 05:41:38;;;;;;;0.00;0.00;;;15.60;84.00;;;;;;5050745;28;20048;-75
2023/08/16 05:44:04;;;;;;;0.00;0.00;;;15.60;83.90;;;;;;5049526;28;20135;-74
2023/08/16 05:46:30;;;;;;;0.00;0.00;;;15.70;83.70;;;;;;5047741;28;20052;-75
2023/08/16 05:48:55;;;;;;;0.00;0.00;;;15.80;83.70;;;;;;5051204;28;20041;-75
2023/08/16 05:51:21;;;;;;;0.00;0.00;;;15.80;83.70;;;;;;5051410;28;20056;-75
2023/08/16 05:53:46;;;;;;;0.00;0.00;;;15.80;83.60;;;;;;5050408;28;20065;-75
2023/08/16 05:56:12;;;;;;;0.00;0.00;;;15.90;83.60;;;;;;5050462;28;20111;-76
2023/08/16 05:58:38;;;;;;;0.00;0.00;;;15.90;83.60;;;;;;5050508;28;20082;-75
2023/08/16 06:01:03;;;;;;;0.00;0.00;;;16.00;83.70;;;;;;5050705;28;20037;-75
2023/08/16 06:03:29;;;;;;;0.00;0.00;;;16.10;83.70;;;;;;5044201;28;20107;-75
2023/08/16 06:05:54;;;;;;;0.00;0.00;;;16.10;83.80;;;;;;5039433;28;20045;-77
2023/08/16 06:08:20;;;;;;;0.00;0.00;;;16.10;84.00;;;;;;5050541;28;20049;-76
2023/08/16 06:10:45;;;;;;;0.00;0.00;;;16.10;84.30;;;;;;5051036;28;20451;-76
2023/08/16 06:13:11;;;;;;;0.00;0.00;;;16.20;84.20;;;;;;5048956;28;20517;-76
2023/08/16 06:15:36;;;;;;;0.00;0.00;;;16.20;84.50;;;;;;5050732;28;20596;-76
2023/08/16 06:18:02;;;;;;;0.00;0.00;;;16.20;84.60;;;;;;5027104;28;20049;-76
2023/08/16 06:20:28;;;;;;;0.00;0.00;;;16.30;84.70;;;;;;5040643;28;20053;-76
2023/08/16 06:22:54;;;;;;;0.00;0.00;;;16.40;84.50;;;;;;5020733;28;20136;-76
2023/08/16 06:25:20;;;;;;;0.00;0.00;;;16.50;84.50;;;;;;5034587;28;20049;-76
2023/08/16 06:27:46;;;;;;;0.00;0.00;;;16.60;84.60;;;;;;5030697;28;20050;-76
2023/08/16 06:30:12;;;;;;;0.00;0.00;;;16.60;84.60;;;;;;5029975;28;20065;-75
2023/08/16 06:32:37;;;;;;;0.00;0.00;;;16.70;84.60;;;;;;5031276;28;20045;-75
2023/08/16 06:35:05;;;;;;;0.00;0.00;;;16.80;84.70;;;;;;5022758;28;20529;-76
2023/08/16 06:37:31;;;;;;;0.00;0.00;;;16.90;85.00;;;;;;5029848;28;20045;-76
2023/08/16 06:39:56;;;;;;;0.00;0.00;;;17.00;84.90;;;;;;5029550;28;20148;-76
2023/08/16 06:42:22;;;;;;;0.00;0.00;;;17.10;85.00;;;;;;5014986;28;20129;-76
2023/08/16 06:44:48;;;;;;;0.00;0.00;;;17.10;85.00;;;;;;5029603;28;20422;-75
2023/08/16 06:47:13;;;;;;;0.00;0.00;;;17.20;85.10;;;;;;5022910;28;20045;-76
2023/08/16 06:49:39;;;;;;;0.00;0.00;;;17.30;85.20;;;;;;5028907;28;20045;-76
2023/08/16 06:52:04;;;;;;;0.00;0.00;;;17.50;85.30;;;;;;5011920;28;20048;-73
2023/08/16 06:54:30;;;;;;;0.00;0.00;;;17.50;85.40;;;;;;5031294;28;20033;-74
2023/08/16 06:56:57;;;;;;;0.00;0.00;;;17.60;85.40;;;;;;5033742;28;20045;-73
2023/08/16 06:59:24;;;;;;;0.00;0.00;;;17.60;85.40;;;;;;5020909;28;20064;-74
2023/08/16 07:01:50;;;;;;;0.35;0.22;;;17.70;85.50;;;;;;5011129;28;20517;-74
2023/08/16 07:04:15;;;;;;;0.00;0.00;;;17.80;85.20;;;;;;5034721;28;20049;-74
2023/08/16 07:06:41;;;;;;;0.00;0.00;;;17.90;85.50;;;;;;5028378;28;20059;-73
2023/08/16 07:09:06;;;;;;;0.00;0.00;;;18.00;85.50;;;;;;5029532;28;20041;-72
2023/08/16 07:11:32;;;;;;;0.00;0.00;;;18.00;85.40;;;;;;5029777;28;20140;-73
2023/08/16 07:13:59;;;;;;;0.00;0.00;;;18.10;85.30;;;;;;5034346;28;20040;-73
2023/08/16 07:16:25;;;;;;;0.00;0.00;;;18.10;85.20;;;;;;5038422;28;20458;-74
2023/08/16 07:18:50;;;;;;;0.00;0.00;;;18.10;84.80;;;;;;5031693;28;20156;-74
2023/08/16 07:21:17;;;;;;;0.00;0.00;;;18.10;84.80;;;;;;5042210;28;20506;-74
2023/08/16 07:23:44;;;;;;;0.00;0.00;;;18.10;84.60;;;;;;5014763;28;20038;-74
2023/08/16 07:26:10;;;;;;;0.00;0.00;;;18.20;84.50;;;;;;5018897;28;20065;-74
2023/08/16 07:28:36;;;;;;;0.00;0.00;;;18.20;84.40;;;;;;5032332;28;20049;-74
2023/08/16 07:31:01;;;;;;;0.10;0.10;;;18.30;84.40;;;;;;5029716;28;20045;-74
2023/08/16 07:33:30;;;;;;;0.00;0.00;;;18.30;84.50;;;;;;5029297;28;20150;-74
2023/08/16 07:36:02;;;;;;;0.00;0.00;;;18.40;84.50;;;;;;5038560;28;20096;-72
2023/08/16 07:38:30;;;;;;;0.00;0.00;;;18.40;84.40;;;;;;5004950;28;20049;-72
2023/08/16 07:40:56;;;;;;;0.00;0.00;;;18.40;84.30;;;;;;5024877;28;20403;-73
2023/08/16 07:43:22;;;;;;;0.00;0.00;;;18.50;84.20;;;;;;5016106;28;20042;-75
2023/08/16 07:45:54;;;;;;;0.00;0.00;;;18.50;84.30;;;;;;5022420;28;20135;-74
2023/08/16 07:48:20;;;;;;;0.03;0.03;;;18.60;84.40;;;;;;5017858;28;20042;-74
2023/08/16 07:50:46;;;;;;;0.00;0.00;;;18.90;86.20;;;;;;5019410;28;20506;-73
2023/08/16 07:53:12;;;;;;;0.00;0.00;;;19.20;85.20;;;;;;5034138;28;20033;-72
2023/08/16 07:55:38;;;;;;;0.00;0.00;;;19.60;83.90;;;;;;5028353;28;20065;-74
2023/08/16 07:58:04;;;;;;;0.00;0.00;;;19.80;82.60;;;;;;5029864;28;20041;-74
2023/08/16 08:00:30;;;;;;;0.00;0.00;;;19.90;81.90;;;;;;5042265;28;20174;-73
2023/08/16 08:02:55;;;;;;;0.00;0.00;;;20.10;81.40;;;;;;5040023;28;20482;-74
2023/08/16 08:05:22;;;;;;;0.10;0.10;;;20.30;80.80;;;;;;5011873;28;20175;-73
2023/08/16 08:07:48;;;;;;;0.00;0.00;;;20.20;80.40;;;;;;5028713;28;20041;-74
2023/08/16 08:10:15;;;;;;;0.00;0.00;;;20.10;80.40;;;;;;4996649;28;20641;-73
2023/08/16 08:12:44;;;;;;;0.00;0.00;;;20.00;80.10;;;;;;5016524;28;20141;-73
2023/08/16 08:15:10;;;;;;;0.00;0.00;;;19.90;80.10;;;;;;5048546;28;20064;-71
2023/08/16 08:17:36;;;;;;;0.00;0.00;;;19.80;80.00;;;;;;5031035;28;20119;-72
2023/08/16 08:20:02;;;;;;;0.00;0.00;;;19.80;79.70;;;;;;5018489;28;20053;-74
2023/08/16 08:22:29;;;;;;;0.00;0.00;;;19.60;79.80;;;;;;5047461;28;20107;-75
2023/08/16 08:24:54;;;;;;;0.00;0.00;;;19.60;79.80;;;;;;5043665;28;20120;-73
2023/08/16 08:27:20;;;;;;;0.00;0.00;;;19.60;80.00;;;;;;5028818;28;20089;-74
2023/08/16 08:29:46;;;;;;;0.00;0.00;;;19.60;80.20;;;;;;5028974;28;20080;-73
2023/08/16 08:32:12;;;;;;;0.00;0.00;;;19.60;80.30;;;;;;5029831;28;20538;-68
2023/08/16 08:34:38;;;;;;;0.00;0.00;;;19.70;80.20;;;;;;5029349;28;20053;-72
2023/08/16 08:37:08;;;;;;;0.00;0.00;;;19.60;80.10;;;;;;5037010;28;20550;-73
2023/08/16 08:39:33;;;;;;;0.00;0.00;;;19.70;80.00;;;;;;5040972;28;20046;-76
2023/08/16 08:41:59;;;;;;;0.00;0.00;;;19.80;80.20;;;;;;5033723;28;20049;-75
2023/08/16 08:44:25;;;;;;;0.00;0.00;;;19.80;79.60;;;;;;5051537;28;20049;-76
2023/08/16 08:46:51;;;;;;;0.00;0.00;;;19.80;79.00;;;;;;5041423;28;20521;-76
2023/08/16 08:49:19;;;;;;;0.00;0.00;;;19.80;79.00;;;;;;5032488;28;20107;-75
2023/08/16 08:51:45;;;;;;;0.00;0.00;;;19.80;79.00;;;;;;5033006;28;20045;-75
2023/08/16 08:54:11;;;;;;;0.00;0.00;;;19.80;78.80;;;;;;5015320;28;20064;-75
2023/08/16 08:56:37;;;;;;;0.00;0.00;;;19.80;78.90;;;;;;5032126;28;20054;-75
2023/08/16 08:59:03;;;;;;;0.00;0.00;;;20.00;79.10;;;;;;5032770;28;20041;-75
2023/08/16 09:01:30;;;;;;;0.00;0.00;;;20.00;78.80;;;;;;5032844;28;20498;-75
2023/08/16 09:04:00;;;;;;;0.10;0.10;;;20.00;78.50;;;;;;5032155;28;20045;-76
2023/08/16 09:06:26;;;;;;;0.00;0.00;;;20.10;78.20;;;;;;5032405;28;20084;-75
2023/08/16 09:08:52;;;;;;;0.03;0.03;;;20.10;77.80;;;;;;5015198;28;20394;-75
2023/08/16 09:11:20;;;;;;;0.00;0.00;;;20.10;78.10;;;;;;5032464;28;20513;-72
2023/08/16 09:13:45;;;;;;;0.00;0.00;;;20.20;77.90;;;;;;5032115;28;20057;-72
2023/08/16 09:16:11;;;;;;;0.00;0.00;;;20.30;77.60;;;;;;5032337;28;20486;-72
2023/08/16 09:18:36;;;;;;;0.00;0.00;;;20.30;77.70;;;;;;5032326;28;20121;-72
2023/08/16 09:21:02;;;;;;;0.00;0.00;;;20.30;77.40;;;;;;5032278;28;20068;-71
2023/08/16 09:23:28;;;;;;;0.00;0.00;;;20.30;77.50;;;;;;4998422;28;20038;-72
2023/08/16 09:25:53;;;;;;;0.00;0.00;;;20.40;77.50;;;;;;5031855;28;20057;-73
2023/08/16 09:28:20;;;;;;;0.00;0.00;;;20.40;77.00;;;;;;5031810;28;20464;-73
2023/08/16 09:30:46;;;;;;;0.00;0.00;;;20.40;76.60;;;;;;4998331;28;20137;-68
2023/08/16 09:33:17;;;;;;;0.00;0.00;;;20.50;76.90;;;;;;5032079;28;20478;-68
2023/08/16 09:35:51;;;;;;;0.00;0.00;;;20.60;77.00;;;;;;5031872;28;20145;-74
2023/08/16 09:38:20;;;;;;;0.00;0.00;;;20.70;77.10;;;;;;5014114;28;20052;-74
2023/08/16 09:40:52;;;;;;;0.00;0.00;;;20.70;76.40;;;;;;5032081;28;20064;-74
2023/08/16 09:43:19;;;;;;;0.00;0.00;;;20.80;75.40;;;;;;5031700;28;20095;-74
2023/08/16 09:45:54;;;;;;;0.00;0.00;;;20.80;74.90;;;;;;5031528;28;20441;-73
2023/08/16 09:48:21;;;;;;;0.35;0.35;;;20.80;75.80;;;;;;5032421;28;20164;-73
2023/08/16 09:50:47;;;;;;;0.00;0.00;;;21.00;75.60;;;;;;5031849;28;20050;-73
2023/08/16 09:53:13;;;;;;;0.00;0.00;;;21.00;75.20;;;;;;5031770;28;20112;-73
2023/08/16 09:55:41;;;;;;;0.00;0.00;;;21.00;75.10;;;;;;5030079;28;20048;-74
2023/08/16 09:58:07;;;;;;;0.03;0.03;;;21.00;74.10;;;;;;5031803;28;20049;-73
2023/08/16 10:00:34;;;;;;;0.00;0.00;;;21.10;74.60;;;;;;5030882;28;20044;-73
2023/08/16 10:03:01;;;;;;;0.00;0.00;;;21.10;74.80;;;;;;5012690;28;20041;-73
2023/08/16 10:05:27;;;;;;;0.00;0.00;;;21.10;74.70;;;;;;5025147;28;20045;-74
2023/08/16 10:07:54;;;;;;;0.00;0.00;;;21.10;72.90;;;;;;5020530;28;20073;-70
2023/08/16 10:10:20;;;;;;;0.00;0.00;;;21.10;73.30;;;;;;5015648;28;20049;-70
2023/08/16 10:12:46;;;;;;;0.00;0.00;;;21.10;72.70;;;;;;5015064;28;20139;-69
2023/08/16 10:15:12;;;;;;;0.00;0.00;;;21.20;72.70;;;;;;5033481;28;20049;-73
2023/08/16 10:17:42;;;;;;;0.00;0.00;;;21.30;73.00;;;;;;5033503;28;20132;-69
2023/08/16 10:20:23;;;;;;;0.00;0.00;;;21.40;72.70;;;;;;5039704;28;20128;-69
2023/08/16 10:22:57;;;;;;;0.00;0.00;;;21.50;72.60;;;;;;5020552;28;20399;-69
2023/08/16 10:25:25;;;;;;;0.00;0.00;;;21.60;73.20;;;;;;5030902;28;20342;-69
2023/08/16 10:27:53;;;;;;;0.00;0.00;;;21.70;72.70;;;;;;5030596;28;20206;-69
2023/08/16 10:30:22;;;;;;;0.00;0.00;;;21.70;72.20;;;;;;5031154;28;20103;-68
2023/08/16 10:32:53;;;;;;;0.00;0.00;;;21.60;71.80;;;;;;5030916;28;20053;-69
2023/08/16 10:35:20;;;;;;;0.03;0.03;;;21.60;71.40;;;;;;5012600;28;20061;-68
2023/08/16 10:37:46;;;;;;;0.00;0.00;;;21.60;71.80;;;;;;5030638;28;20049;-69
2023/08/16 10:40:21;;;;;;;4.07;0.65;;;21.60;72.10;;;;;;5030637;28;20045;-69
2023/08/16 10:42:57;;;;;;;0.00;0.00;;;21.60;71.30;;;;;;5013118;28;20056;-68
2023/08/16 10:45:28;;;;;;;0.00;0.00;;;21.70;70.90;;;;;;5003284;28;20136;-69
2023/08/16 10:47:55;;;;;;;0.00;0.00;;;21.70;71.30;;;;;;5031008;28;20080;-69
2023/08/16 10:50:30;;;;;;;0.03;0.03;;;21.70;71.60;;;;;;5034710;28;20501;-68
2023/08/16 10:52:58;;;;;;;0.00;0.00;;;21.70;71.20;;;;;;5030068;28;20041;-68
2023/08/16 10:55:24;;;;;;;0.00;0.00;;;21.70;69.40;;;;;;5023505;28;20124;-69
2023/08/16 10:57:52;;;;;;;0.00;0.00;;;21.80;70.80;;;;;;5031204;28;20120;-69
2023/08/16 11:00:18;;;;;;;0.00;0.00;;;21.80;69.30;;;;;;5042455;28;20068;-69
2023/08/16 11:02:48;;;;;;;0.00;0.00;;;21.90;69.90;;;;;;5031699;28;20048;-70
2023/08/16 11:05:20;;;;;;;0.00;0.00;;;22.00;70.20;;;;;;5035274;28;20048;-70
2023/08/16 11:07:46;;;;;;;0.00;0.00;;;22.10;69.70;;;;;;5030028;28;20034;-69
2023/08/16 11:10:12;;;;;;;0.00;0.00;;;22.20;69.90;;;;;;5028697;28;20041;-69
2023/08/16 11:12:39;;;;;;;0.00;0.00;;;22.40;69.30;;;;;;5028955;28;20073;-70
2023/08/16 11:15:05;;;;;;;0.00;0.00;;;22.50;68.30;;;;;;4993282;28;20046;-69
2023/08/16 11:17:33;;;;;;;0.00;0.00;;;22.70;69.30;;;;;;5011436;28;20045;-69
2023/08/16 11:20:05;;;;;;;0.00;0.00;;;22.70;68.70;;;;;;5034607;28;20033;-69
2023/08/16 11:22:31;;;;;;;0.03;0.03;;;22.60;66.80;;;;;;5036697;28;20501;-70
2023/08/16 11:24:59;;;;;;;0.10;0.10;;;22.70;68.10;;;;;;5043557;28;20065;-68
2023/08/16 11:27:25;;;;;;;0.00;0.00;;;22.70;67.20;;;;;;5032689;28;20051;-70
2023/08/16 11:29:52;;;;;;;0.00;0.00;;;22.80;66.20;;;;;;5035138;28;20436;-67
2023/08/16 11:32:38;;;;;;;0.00;0.00;;;22.60;65.70;;;;;;5028699;28;20557;-68
2023/08/16 11:35:06;;;;;;;0.05;0.05;;;22.70;66.10;;;;;;5024793;28;20099;-67
2023/08/16 11:37:33;;;;;;;0.00;0.00;;;22.70;67.00;;;;;;5031792;28;20044;-67
2023/08/16 11:40:07;;;;;;;0.00;0.00;;;22.80;67.50;;;;;;5027539;28;20344;-67
2023/08/16 11:42:33;;;;;;;0.00;0.00;;;22.90;64.80;;;;;;5029341;28;20049;-68
2023/08/16 11:44:59;;;;;;;0.00;0.00;;;22.90;65.80;;;;;;5024039;28;20037;-68
2023/08/16 11:47:24;;;;;;;0.00;0.00;;;23.00;65.00;;;;;;5016847;28;20064;-68
2023/08/16 11:49:51;;;;;;;0.00;0.00;;;23.00;63.70;;;;;;5024186;28;20045;-68
2023/08/16 11:52:23;;;;;;;0.00;0.00;;;23.10;65.50;;;;;;5022810;28;20580;-68
2023/08/16 11:55:07;;;;;;;0.00;0.00;;;23.10;63.60;;;;;;4992944;28;20100;-68
2023/08/16 11:57:42;;;;;;;0.00;0.00;;;23.20;64.60;;;;;;5024700;28;20445;-68
2023/08/16 12:00:08;;;;;;;8.13;0.43;;;23.30;64.90;;;;;;5025923;28;20155;-68
2023/08/16 12:02:34;;;;;;;0.00;0.00;;;23.30;65.10;;;;;;5025711;28;20383;-68
2023/08/16 12:05:09;;;;;;;0.00;0.00;;;23.40;62.30;;;;;;5025016;28;20057;-69
2023/08/16 12:07:43;;;;;;;0.00;0.00;;;23.50;64.60;;;;;;5025096;28;20081;-68
2023/08/16 12:10:09;;;;;;;0.00;0.00;;;23.60;64.90;;;;;;5025831;28;20407;-68
2023/08/16 12:12:34;;;;;;;0.00;0.00;;;23.80;64.10;;;;;;5025736;28;20033;-68
2023/08/16 12:15:00;;;;;;;0.00;0.00;;;24.00;64.00;;;;;;5025977;28;20041;-68
2023/08/16 12:17:26;;;;;;;0.00;0.00;;;24.10;63.70;;;;;;5025840;28;20079;-68
2023/08/16 12:19:51;;;;;;;0.13;0.13;;;24.30;63.00;;;;;;5024685;28;20565;-68
2023/08/16 12:22:17;;;;;;;0.00;0.00;;;24.50;62.40;;;;;;5025777;28;20563;-68
2023/08/16 12:24:42;;;;;;;0.00;0.00;;;24.50;61.30;;;;;;5025750;28;20043;-68
2023/08/16 12:27:08;;;;;;;0.15;0.10;;;24.60;62.80;;;;;;5025855;28;20037;-68
2023/08/16 12:29:33;;;;;;;0.00;0.00;;;24.70;61.50;;;;;;5025889;28;20061;-68
2023/08/16 12:31:59;;;;;;;0.00;0.00;;;24.60;57.90;;;;;;5024688;28;20056;-68
2023/08/16 12:34:24;;;;;;;0.00;0.00;;;24.60;59.40;;;;;;5026106;28;20037;-68
2023/08/16 12:36:50;;;;;;;0.00;0.00;;;24.50;58.00;;;;;;5025877;28;20449;-68
2023/08/16 12:39:16;;;;;;;0.00;0.00;;;24.40;58.30;;;;;;5025952;28;20133;-68
2023/08/16 12:41:41;;;;;;;0.00;0.00;;;24.30;58.60;;;;;;5025550;28;20379;-68
2023/08/16 12:44:07;;;;;;;0.00;0.00;;;24.30;58.70;;;;;;5025929;28;20054;-68
2023/08/16 12:46:32;;;;;;;0.00;0.00;;;24.40;60.50;;;;;;5008166;28;20048;-68